sensor_id;sensor_type;location;lat;lon;timestamp;P1;durP1;ratioP1;P2;durP2;ratioP2
35418;SDS011;21525;41.240;16.500;2024-01-30T00:01:52;16.92;;;7.75;;
35418;SDS011;21525;41.240;16.500;2024-01-30T00:04:18;17.85;;;8.07;;
35418;SDS011;21525;41.240;16.500;2024-01-30T00:06:44;13.88;;;7.30;;
35418;SDS011;21525;41.240;16.500;2024-01-30T00:09:10;16.83;;;8.35;;
35418;SDS011;21525;41.240;16.500;2024-01-30T00:11:36;17.70;;;9.30;;
35418;SDS011;21525;41.240;16.500;2024-01-30T00:14:03;16.92;;;8.18;;
35418;SDS011;21525;41.240;16.500;2024-01-30T00:16:29;17.90;;;8.88;;
35418;SDS011;21525;41.240;16.500;2024-01-30T00:18:55;17.90;;;9.20;;
35418;SDS011;21525;41.240;16.500;2024-01-30T00:21:21;18.25;;;9.63;;
35418;SDS011;21525;41.240;16.500;2024-01-30T00:23:47;15.85;;;8.48;;
35418;SDS011;21525;41.240;16.500;2024-01-30T00:26:13;17.02;;;9.55;;
35418;SDS011;21525;41.240;16.500;2024-01-30T00:28:40;15.85;;;9.80;;
35418;SDS011;21525;41.240;16.500;2024-01-30T00:31:07;16.00;;;8.77;;
35418;SDS011;21525;41.240;16.500;2024-01-30T00:33:33;19.17;;;9.60;;
35418;SDS011;21525;41.240;16.500;2024-01-30T00:35:59;18.88;;;10.35;;
35418;SDS011;21525;41.240;16.500;2024-01-30T00:38:24;16.80;;;9.75;;
35418;SDS011;21525;41.240;16.500;2024-01-30T00:40:50;22.33;;;10.55;;
35418;SDS011;21525;41.240;16.500;2024-01-30T00:43:16;19.83;;;10.57;;
35418;SDS011;21525;41.240;16.500;2024-01-30T00:45:45;18.85;;;10.10;;
35418;SDS011;21525;41.240;16.500;2024-01-30T00:48:10;19.77;;;10.45;;
35418;SDS011;21525;41.240;16.500;2024-01-30T00:50:36;16.33;;;10.30;;
35418;SDS011;21525;41.240;16.500;2024-01-30T00:53:02;20.73;;;10.80;;
35418;SDS011;21525;41.240;16.500;2024-01-30T00:55:28;18.25;;;9.65;;
35418;SDS011;21525;41.240;16.500;2024-01-30T00:57:53;20.92;;;9.48;;
35418;SDS011;21525;41.240;16.500;2024-01-30T01:00:19;16.75;;;9.73;;
35418;SDS011;21525;41.240;16.500;2024-01-30T01:02:46;18.63;;;9.70;;
35418;SDS011;21525;41.240;16.500;2024-01-30T01:05:12;19.65;;;9.70;;
35418;SDS011;21525;41.240;16.500;2024-01-30T01:07:38;19.95;;;10.25;;
35418;SDS011;21525;41.240;16.500;2024-01-30T01:10:05;17.13;;;10.05;;
35418;SDS011;21525;41.240;16.500;2024-01-30T01:12:31;17.67;;;8.85;;
35418;SDS011;21525;41.240;16.500;2024-01-30T01:14:57;16.80;;;9.40;;
35418;SDS011;21525;41.240;16.500;2024-01-30T01:17:23;18.40;;;9.27;;
35418;SDS011;21525;41.240;16.500;2024-01-30T01:19:48;19.58;;;10.40;;
35418;SDS011;21525;41.240;16.500;2024-01-30T01:22:15;16.42;;;9.93;;
35418;SDS011;21525;41.240;16.500;2024-01-30T01:24:41;15.98;;;9.05;;
35418;SDS011;21525;41.240;16.500;2024-01-30T01:27:07;18.08;;;9.77;;
35418;SDS011;21525;41.240;16.500;2024-01-30T01:29:33;17.33;;;9.35;;
35418;SDS011;21525;41.240;16.500;2024-01-30T01:31:59;19.73;;;10.07;;
35418;SDS011;21525;41.240;16.500;2024-01-30T01:34:24;19.08;;;10.15;;
35418;SDS011;21525;41.240;16.500;2024-01-30T01:36:50;19.00;;;10.05;;
35418;SDS011;21525;41.240;16.500;2024-01-30T01:39:16;18.25;;;10.43;;
35418;SDS011;21525;41.240;16.500;2024-01-30T01:41:43;19.20;;;10.82;;
35418;SDS011;21525;41.240;16.500;2024-01-30T01:44:08;17.80;;;10.30;;
35418;SDS011;21525;41.240;16.500;2024-01-30T01:46:35;18.90;;;11.90;;
35418;SDS011;21525;41.240;16.500;2024-01-30T01:49:02;19.85;;;10.75;;
35418;SDS011;21525;41.240;16.500;2024-01-30T01:51:30;20.83;;;10.57;;
35418;SDS011;21525;41.240;16.500;2024-01-30T01:56:26;20.08;;;10.65;;
35418;SDS011;21525;41.240;16.500;2024-01-30T01:58:53;19.50;;;11.45;;
35418;SDS011;21525;41.240;16.500;2024-01-30T02:01:20;22.02;;;11.88;;
35418;SDS011;21525;41.240;16.500;2024-01-30T02:03:47;19.67;;;10.98;;
35418;SDS011;21525;41.240;16.500;2024-01-30T02:06:13;20.27;;;11.50;;
35418;SDS011;21525;41.240;16.500;2024-01-30T02:08:40;19.13;;;10.55;;
35418;SDS011;21525;41.240;16.500;2024-01-30T02:11:07;17.92;;;10.80;;
35418;SDS011;21525;41.240;16.500;2024-01-30T02:13:33;18.70;;;11.55;;
35418;SDS011;21525;41.240;16.500;2024-01-30T02:15:59;21.55;;;12.55;;
35418;SDS011;21525;41.240;16.500;2024-01-30T02:18:26;23.05;;;12.13;;
35418;SDS011;21525;41.240;16.500;2024-01-30T02:21:12;20.63;;;11.45;;
35418;SDS011;21525;41.240;16.500;2024-01-30T02:23:38;21.40;;;11.63;;
35418;SDS011;21525;41.240;16.500;2024-01-30T02:26:06;20.05;;;11.52;;
35418;SDS011;21525;41.240;16.500;2024-01-30T02:28:32;20.05;;;11.43;;
35418;SDS011;21525;41.240;16.500;2024-01-30T02:30:57;20.98;;;11.48;;
35418;SDS011;21525;41.240;16.500;2024-01-30T02:33:23;23.20;;;12.68;;
35418;SDS011;21525;41.240;16.500;2024-01-30T02:35:49;21.13;;;12.15;;
35418;SDS011;21525;41.240;16.500;2024-01-30T02:38:15;22.77;;;10.93;;
35418;SDS011;21525;41.240;16.500;2024-01-30T02:40:41;20.27;;;11.48;;
35418;SDS011;21525;41.240;16.500;2024-01-30T02:43:07;22.02;;;12.80;;
35418;SDS011;21525;41.240;16.500;2024-01-30T02:45:33;25.23;;;12.40;;
35418;SDS011;21525;41.240;16.500;2024-01-30T02:47:59;22.88;;;13.98;;
35418;SDS011;21525;41.240;16.500;2024-01-30T02:50:24;26.35;;;16.73;;
35418;SDS011;21525;41.240;16.500;2024-01-30T02:52:50;34.05;;;21.88;;
35418;SDS011;21525;41.240;16.500;2024-01-30T02:55:16;27.30;;;16.63;;
35418;SDS011;21525;41.240;16.500;2024-01-30T02:57:43;24.77;;;16.85;;
35418;SDS011;21525;41.240;16.500;2024-01-30T03:00:09;24.42;;;16.67;;
35418;SDS011;21525;41.240;16.500;2024-01-30T03:02:35;26.58;;;15.88;;
35418;SDS011;21525;41.240;16.500;2024-01-30T03:05:02;22.20;;;14.32;;
35418;SDS011;21525;41.240;16.500;2024-01-30T03:07:29;24.02;;;15.77;;
35418;SDS011;21525;41.240;16.500;2024-01-30T03:09:55;28.17;;;17.75;;
35418;SDS011;21525;41.240;16.500;2024-01-30T03:12:21;23.42;;;16.20;;
35418;SDS011;21525;41.240;16.500;2024-01-30T03:14:47;26.92;;;16.23;;
35418;SDS011;21525;41.240;16.500;2024-01-30T03:17:14;25.75;;;15.50;;
35418;SDS011;21525;41.240;16.500;2024-01-30T03:19:40;24.25;;;14.23;;
35418;SDS011;21525;41.240;16.500;2024-01-30T03:22:06;24.08;;;14.48;;
35418;SDS011;21525;41.240;16.500;2024-01-30T03:24:32;22.48;;;13.98;;
35418;SDS011;21525;41.240;16.500;2024-01-30T03:26:58;28.65;;;18.85;;
35418;SDS011;21525;41.240;16.500;2024-01-30T03:29:24;29.50;;;18.23;;
35418;SDS011;21525;41.240;16.500;2024-01-30T03:31:49;27.35;;;16.88;;
35418;SDS011;21525;41.240;16.500;2024-01-30T03:34:15;23.65;;;14.25;;
35418;SDS011;21525;41.240;16.500;2024-01-30T03:36:41;26.77;;;13.75;;
35418;SDS011;21525;41.240;16.500;2024-01-30T03:39:07;22.77;;;14.18;;
35418;SDS011;21525;41.240;16.500;2024-01-30T03:41:32;23.20;;;13.73;;
35418;SDS011;21525;41.240;16.500;2024-01-30T03:43:58;24.42;;;14.75;;
35418;SDS011;21525;41.240;16.500;2024-01-30T03:46:24;47.05;;;15.43;;
35418;SDS011;21525;41.240;16.500;2024-01-30T03:48:50;37.20;;;15.73;;
35418;SDS011;21525;41.240;16.500;2024-01-30T03:51:16;25.45;;;13.73;;
35418;SDS011;21525;41.240;16.500;2024-01-30T03:53:42;23.00;;;13.55;;
35418;SDS011;21525;41.240;16.500;2024-01-30T03:56:08;24.52;;;13.77;;
35418;SDS011;21525;41.240;16.500;2024-01-30T03:58:35;26.67;;;16.63;;
35418;SDS011;21525;41.240;16.500;2024-01-30T04:01:01;22.25;;;12.98;;
35418;SDS011;21525;41.240;16.500;2024-01-30T04:03:27;21.85;;;12.27;;
35418;SDS011;21525;41.240;16.500;2024-01-30T04:05:52;26.63;;;13.45;;
35418;SDS011;21525;41.240;16.500;2024-01-30T04:08:18;23.08;;;12.70;;
35418;SDS011;21525;41.240;16.500;2024-01-30T04:10:44;21.60;;;12.77;;
35418;SDS011;21525;41.240;16.500;2024-01-30T04:13:11;22.63;;;13.77;;
35418;SDS011;21525;41.240;16.500;2024-01-30T04:15:37;24.02;;;13.30;;
35418;SDS011;21525;41.240;16.500;2024-01-30T04:18:02;20.13;;;12.38;;
35418;SDS011;21525;41.240;16.500;2024-01-30T04:20:29;21.80;;;13.07;;
35418;SDS011;21525;41.240;16.500;2024-01-30T04:22:54;20.60;;;13.15;;
35418;SDS011;21525;41.240;16.500;2024-01-30T04:25:20;22.45;;;13.93;;
35418;SDS011;21525;41.240;16.500;2024-01-30T04:27:46;20.20;;;13.07;;
35418;SDS011;21525;41.240;16.500;2024-01-30T04:30:12;22.60;;;13.95;;
35418;SDS011;21525;41.240;16.500;2024-01-30T04:32:38;23.30;;;14.18;;
35418;SDS011;21525;41.240;16.500;2024-01-30T04:35:04;24.85;;;15.10;;
35418;SDS011;21525;41.240;16.500;2024-01-30T04:37:30;25.70;;;14.77;;
35418;SDS011;21525;41.240;16.500;2024-01-30T04:39:56;27.90;;;15.15;;
35418;SDS011;21525;41.240;16.500;2024-01-30T04:42:22;21.38;;;13.25;;
35418;SDS011;21525;41.240;16.500;2024-01-30T04:44:48;22.80;;;13.20;;
35418;SDS011;21525;41.240;16.500;2024-01-30T04:47:14;22.00;;;13.07;;
35418;SDS011;21525;41.240;16.500;2024-01-30T04:49:40;22.20;;;13.20;;
35418;SDS011;21525;41.240;16.500;2024-01-30T04:52:06;21.88;;;12.98;;
35418;SDS011;21525;41.240;16.500;2024-01-30T04:54:33;24.00;;;14.40;;
35418;SDS011;21525;41.240;16.500;2024-01-30T04:57:00;27.20;;;14.63;;
35418;SDS011;21525;41.240;16.500;2024-01-30T04:59:26;24.42;;;14.57;;
35418;SDS011;21525;41.240;16.500;2024-01-30T05:01:51;20.17;;;13.13;;
35418;SDS011;21525;41.240;16.500;2024-01-30T05:04:17;26.42;;;14.95;;
35418;SDS011;21525;41.240;16.500;2024-01-30T05:06:43;23.35;;;12.45;;
35418;SDS011;21525;41.240;16.500;2024-01-30T05:09:09;21.55;;;11.95;;
35418;SDS011;21525;41.240;16.500;2024-01-30T05:11:38;23.60;;;11.88;;
35418;SDS011;21525;41.240;16.500;2024-01-30T05:14:04;21.88;;;12.40;;
35418;SDS011;21525;41.240;16.500;2024-01-30T05:16:31;20.58;;;11.32;;
35418;SDS011;21525;41.240;16.500;2024-01-30T05:18:57;21.38;;;12.35;;
35418;SDS011;21525;41.240;16.500;2024-01-30T05:21:23;20.65;;;12.15;;
35418;SDS011;21525;41.240;16.500;2024-01-30T05:23:49;22.40;;;12.45;;
35418;SDS011;21525;41.240;16.500;2024-01-30T05:26:15;20.08;;;12.38;;
35418;SDS011;21525;41.240;16.500;2024-01-30T05:28:41;22.80;;;13.48;;
35418;SDS011;21525;41.240;16.500;2024-01-30T05:31:07;20.98;;;11.52;;
35418;SDS011;21525;41.240;16.500;2024-01-30T05:33:33;21.92;;;12.68;;
35418;SDS011;21525;41.240;16.500;2024-01-30T05:35:59;21.58;;;12.60;;
35418;SDS011;21525;41.240;16.500;2024-01-30T05:38:25;20.70;;;12.52;;
35418;SDS011;21525;41.240;16.500;2024-01-30T05:40:50;21.45;;;13.23;;
35418;SDS011;21525;41.240;16.500;2024-01-30T05:43:17;25.00;;;15.15;;
35418;SDS011;21525;41.240;16.500;2024-01-30T05:45:42;28.77;;;16.65;;
35418;SDS011;21525;41.240;16.500;2024-01-30T05:48:08;27.38;;;16.40;;
35418;SDS011;21525;41.240;16.500;2024-01-30T05:50:34;31.33;;;16.40;;
35418;SDS011;21525;41.240;16.500;2024-01-30T05:53:00;29.13;;;17.85;;
35418;SDS011;21525;41.240;16.500;2024-01-30T05:55:26;26.42;;;16.85;;
35418;SDS011;21525;41.240;16.500;2024-01-30T05:57:51;29.42;;;17.60;;
35418;SDS011;21525;41.240;16.500;2024-01-30T06:00:18;31.90;;;17.63;;
35418;SDS011;21525;41.240;16.500;2024-01-30T06:02:43;28.85;;;17.70;;
35418;SDS011;21525;41.240;16.500;2024-01-30T06:05:09;28.02;;;16.38;;
35418;SDS011;21525;41.240;16.500;2024-01-30T06:07:35;28.05;;;15.23;;
35418;SDS011;21525;41.240;16.500;2024-01-30T06:10:01;25.45;;;15.85;;
35418;SDS011;21525;41.240;16.500;2024-01-30T06:12:27;24.58;;;14.35;;
35418;SDS011;21525;41.240;16.500;2024-01-30T06:14:53;26.38;;;14.68;;
35418;SDS011;21525;41.240;16.500;2024-01-30T06:17:22;26.65;;;14.93;;
35418;SDS011;21525;41.240;16.500;2024-01-30T06:19:48;28.20;;;15.35;;
35418;SDS011;21525;41.240;16.500;2024-01-30T06:22:14;24.45;;;14.65;;
35418;SDS011;21525;41.240;16.500;2024-01-30T06:24:41;30.83;;;15.30;;
35418;SDS011;21525;41.240;16.500;2024-01-30T06:27:06;24.98;;;14.40;;
35418;SDS011;21525;41.240;16.500;2024-01-30T06:29:32;25.67;;;14.93;;
35418;SDS011;21525;41.240;16.500;2024-01-30T06:31:59;22.13;;;13.70;;
35418;SDS011;21525;41.240;16.500;2024-01-30T06:34:24;24.58;;;14.73;;
35418;SDS011;21525;41.240;16.500;2024-01-30T06:36:51;23.95;;;15.27;;
35418;SDS011;21525;41.240;16.500;2024-01-30T06:39:17;27.70;;;15.32;;
35418;SDS011;21525;41.240;16.500;2024-01-30T06:41:43;28.50;;;15.55;;
35418;SDS011;21525;41.240;16.500;2024-01-30T06:44:11;24.98;;;14.55;;
35418;SDS011;21525;41.240;16.500;2024-01-30T06:46:38;27.35;;;16.20;;
35418;SDS011;21525;41.240;16.500;2024-01-30T06:49:04;31.67;;;15.68;;
35418;SDS011;21525;41.240;16.500;2024-01-30T06:51:30;27.42;;;15.05;;
35418;SDS011;21525;41.240;16.500;2024-01-30T06:53:56;26.50;;;16.00;;
35418;SDS011;21525;41.240;16.500;2024-01-30T06:56:21;25.55;;;14.80;;
35418;SDS011;21525;41.240;16.500;2024-01-30T06:58:49;30.83;;;16.35;;
35418;SDS011;21525;41.240;16.500;2024-01-30T07:01:16;31.52;;;17.48;;
35418;SDS011;21525;41.240;16.500;2024-01-30T07:03:42;27.63;;;17.17;;
35418;SDS011;21525;41.240;16.500;2024-01-30T07:06:08;27.55;;;16.63;;
35418;SDS011;21525;41.240;16.500;2024-01-30T07:08:36;31.00;;;16.50;;
35418;SDS011;21525;41.240;16.500;2024-01-30T07:11:06;31.05;;;17.80;;
35418;SDS011;21525;41.240;16.500;2024-01-30T07:13:34;30.52;;;17.67;;
35418;SDS011;21525;41.240;16.500;2024-01-30T07:15:59;32.17;;;17.70;;
35418;SDS011;21525;41.240;16.500;2024-01-30T07:18:25;28.98;;;17.95;;
35418;SDS011;21525;41.240;16.500;2024-01-30T07:20:51;31.40;;;18.25;;
35418;SDS011;21525;41.240;16.500;2024-01-30T07:23:17;27.85;;;16.80;;
35418;SDS011;21525;41.240;16.500;2024-01-30T07:25:43;29.05;;;17.30;;
35418;SDS011;21525;41.240;16.500;2024-01-30T07:28:10;32.90;;;17.98;;
35418;SDS011;21525;41.240;16.500;2024-01-30T07:30:37;26.67;;;14.82;;
35418;SDS011;21525;41.240;16.500;2024-01-30T07:33:04;27.45;;;14.73;;
35418;SDS011;21525;41.240;16.500;2024-01-30T07:35:30;28.17;;;15.45;;
35418;SDS011;21525;41.240;16.500;2024-01-30T07:37:56;25.65;;;14.02;;
35418;SDS011;21525;41.240;16.500;2024-01-30T07:40:22;24.75;;;13.80;;
35418;SDS011;21525;41.240;16.500;2024-01-30T07:42:48;31.52;;;14.32;;
35418;SDS011;21525;41.240;16.500;2024-01-30T07:45:14;22.60;;;13.23;;
35418;SDS011;21525;41.240;16.500;2024-01-30T07:47:39;21.08;;;12.77;;
35418;SDS011;21525;41.240;16.500;2024-01-30T07:50:05;24.17;;;14.48;;
35418;SDS011;21525;41.240;16.500;2024-01-30T07:52:32;23.48;;;12.98;;
35418;SDS011;21525;41.240;16.500;2024-01-30T07:54:57;26.00;;;14.32;;
35418;SDS011;21525;41.240;16.500;2024-01-30T07:57:23;27.10;;;17.20;;
35418;SDS011;21525;41.240;16.500;2024-01-30T07:59:50;27.83;;;16.98;;
35418;SDS011;21525;41.240;16.500;2024-01-30T08:02:16;30.58;;;16.40;;
35418;SDS011;21525;41.240;16.500;2024-01-30T08:04:42;28.27;;;16.27;;
35418;SDS011;21525;41.240;16.500;2024-01-30T08:07:08;29.55;;;17.77;;
35418;SDS011;21525;41.240;16.500;2024-01-30T08:09:34;41.58;;;18.08;;
35418;SDS011;21525;41.240;16.500;2024-01-30T08:12:00;29.55;;;16.33;;
35418;SDS011;21525;41.240;16.500;2024-01-30T08:14:26;30.08;;;16.08;;
35418;SDS011;21525;41.240;16.500;2024-01-30T08:16:53;29.50;;;15.85;;
35418;SDS011;21525;41.240;16.500;2024-01-30T08:19:19;37.42;;;16.25;;
35418;SDS011;21525;41.240;16.500;2024-01-30T08:21:45;29.83;;;16.60;;
35418;SDS011;21525;41.240;16.500;2024-01-30T08:24:11;37.00;;;15.65;;
35418;SDS011;21525;41.240;16.500;2024-01-30T08:26:37;29.92;;;15.73;;
35418;SDS011;21525;41.240;16.500;2024-01-30T08:29:03;207.63;;;29.45;;
35418;SDS011;21525;41.240;16.500;2024-01-30T08:31:29;28.38;;;14.77;;
35418;SDS011;21525;41.240;16.500;2024-01-30T08:33:55;22.38;;;15.00;;
35418;SDS011;21525;41.240;16.500;2024-01-30T08:36:21;20.73;;;13.27;;
35418;SDS011;21525;41.240;16.500;2024-01-30T08:38:46;23.88;;;15.02;;
35418;SDS011;21525;41.240;16.500;2024-01-30T08:41:12;23.33;;;13.93;;
35418;SDS011;21525;41.240;16.500;2024-01-30T08:43:38;24.83;;;15.20;;
35418;SDS011;21525;41.240;16.500;2024-01-30T08:46:04;23.15;;;14.52;;
35418;SDS011;21525;41.240;16.500;2024-01-30T08:48:30;24.55;;;13.52;;
35418;SDS011;21525;41.240;16.500;2024-01-30T08:50:55;22.00;;;13.02;;
35418;SDS011;21525;41.240;16.500;2024-01-30T08:53:22;19.73;;;13.25;;
35418;SDS011;21525;41.240;16.500;2024-01-30T08:55:47;23.70;;;14.48;;
35418;SDS011;21525;41.240;16.500;2024-01-30T08:58:13;25.05;;;14.18;;
35418;SDS011;21525;41.240;16.500;2024-01-30T09:00:40;22.85;;;15.25;;
35418;SDS011;21525;41.240;16.500;2024-01-30T09:03:06;27.70;;;17.48;;
35418;SDS011;21525;41.240;16.500;2024-01-30T09:05:32;25.80;;;16.20;;
35418;SDS011;21525;41.240;16.500;2024-01-30T09:07:57;29.15;;;15.55;;
35418;SDS011;21525;41.240;16.500;2024-01-30T09:10:23;25.88;;;16.95;;
35418;SDS011;21525;41.240;16.500;2024-01-30T09:12:49;25.90;;;16.17;;
35418;SDS011;21525;41.240;16.500;2024-01-30T09:15:15;22.55;;;15.57;;
35418;SDS011;21525;41.240;16.500;2024-01-30T09:17:40;24.42;;;15.32;;
35418;SDS011;21525;41.240;16.500;2024-01-30T09:20:06;25.38;;;15.63;;
35418;SDS011;21525;41.240;16.500;2024-01-30T09:22:32;25.85;;;15.43;;
35418;SDS011;21525;41.240;16.500;2024-01-30T09:24:58;24.23;;;14.13;;
35418;SDS011;21525;41.240;16.500;2024-01-30T09:27:24;26.05;;;14.70;;
35418;SDS011;21525;41.240;16.500;2024-01-30T09:29:49;27.92;;;15.60;;
35418;SDS011;21525;41.240;16.500;2024-01-30T09:32:15;26.73;;;16.80;;
35418;SDS011;21525;41.240;16.500;2024-01-30T09:34:43;27.30;;;15.68;;
35418;SDS011;21525;41.240;16.500;2024-01-30T09:37:09;23.73;;;14.82;;
35418;SDS011;21525;41.240;16.500;2024-01-30T09:39:34;24.35;;;14.32;;
35418;SDS011;21525;41.240;16.500;2024-01-30T09:42:02;24.48;;;14.60;;
35418;SDS011;21525;41.240;16.500;2024-01-30T09:44:37;32.28;;;16.92;;
35418;SDS011;21525;41.240;16.500;2024-01-30T09:47:03;25.58;;;16.83;;
35418;SDS011;21525;41.240;16.500;2024-01-30T09:49:34;32.15;;;17.92;;
35418;SDS011;21525;41.240;16.500;2024-01-30T09:52:04;32.88;;;23.23;;
35418;SDS011;21525;41.240;16.500;2024-01-30T09:54:31;30.20;;;19.77;;
35418;SDS011;21525;41.240;16.500;2024-01-30T09:56:57;28.05;;;17.33;;
35418;SDS011;21525;41.240;16.500;2024-01-30T09:59:23;28.38;;;16.17;;
35418;SDS011;21525;41.240;16.500;2024-01-30T10:01:50;24.10;;;15.02;;
35418;SDS011;21525;41.240;16.500;2024-01-30T10:04:15;27.30;;;16.13;;
35418;SDS011;21525;41.240;16.500;2024-01-30T10:06:41;26.42;;;14.23;;
35418;SDS011;21525;41.240;16.500;2024-01-30T10:09:07;20.48;;;13.18;;
35418;SDS011;21525;41.240;16.500;2024-01-30T10:11:35;20.45;;;12.77;;
35418;SDS011;21525;41.240;16.500;2024-01-30T10:14:01;21.38;;;12.27;;
35418;SDS011;21525;41.240;16.500;2024-01-30T10:16:27;21.80;;;15.20;;
35418;SDS011;21525;41.240;16.500;2024-01-30T10:18:53;23.67;;;13.95;;
35418;SDS011;21525;41.240;16.500;2024-01-30T10:21:19;25.60;;;13.95;;
35418;SDS011;21525;41.240;16.500;2024-01-30T10:23:45;22.58;;;13.32;;
35418;SDS011;21525;41.240;16.500;2024-01-30T10:26:10;18.17;;;12.38;;
35418;SDS011;21525;41.240;16.500;2024-01-30T10:28:36;19.50;;;12.02;;
35418;SDS011;21525;41.240;16.500;2024-01-30T10:31:02;17.80;;;10.50;;
35418;SDS011;21525;41.240;16.500;2024-01-30T10:33:31;20.73;;;11.57;;
35418;SDS011;21525;41.240;16.500;2024-01-30T10:36:00;18.92;;;10.38;;
35418;SDS011;21525;41.240;16.500;2024-01-30T10:38:30;23.40;;;10.85;;
35418;SDS011;21525;41.240;16.500;2024-01-30T10:40:58;24.30;;;12.95;;
35418;SDS011;21525;41.240;16.500;2024-01-30T10:43:40;25.52;;;15.35;;
35418;SDS011;21525;41.240;16.500;2024-01-30T10:46:10;27.40;;;14.82;;
35418;SDS011;21525;41.240;16.500;2024-01-30T10:48:42;24.73;;;15.05;;
35418;SDS011;21525;41.240;16.500;2024-01-30T10:51:12;24.50;;;12.77;;
35418;SDS011;21525;41.240;16.500;2024-01-30T10:53:39;22.80;;;14.65;;
35418;SDS011;21525;41.240;16.500;2024-01-30T10:56:06;22.52;;;14.18;;
35418;SDS011;21525;41.240;16.500;2024-01-30T10:58:34;24.23;;;15.30;;
35418;SDS011;21525;41.240;16.500;2024-01-30T11:01:00;21.67;;;14.55;;
35418;SDS011;21525;41.240;16.500;2024-01-30T11:03:26;21.83;;;13.63;;
35418;SDS011;21525;41.240;16.500;2024-01-30T11:05:52;21.77;;;13.77;;
35418;SDS011;21525;41.240;16.500;2024-01-30T11:08:24;21.67;;;13.82;;
35418;SDS011;21525;41.240;16.500;2024-01-30T11:10:56;23.90;;;13.77;;
35418;SDS011;21525;41.240;16.500;2024-01-30T11:13:30;24.95;;;15.55;;
35418;SDS011;21525;41.240;16.500;2024-01-30T11:16:15;24.73;;;14.57;;
35418;SDS011;21525;41.240;16.500;2024-01-30T11:18:40;26.42;;;16.08;;
35418;SDS011;21525;41.240;16.500;2024-01-30T11:21:07;25.65;;;15.07;;
35418;SDS011;21525;41.240;16.500;2024-01-30T11:23:33;24.60;;;14.25;;
35418;SDS011;21525;41.240;16.500;2024-01-30T11:26:00;23.65;;;14.55;;
35418;SDS011;21525;41.240;16.500;2024-01-30T11:28:32;27.38;;;15.10;;
35418;SDS011;21525;41.240;16.500;2024-01-30T11:31:03;27.17;;;15.35;;
35418;SDS011;21525;41.240;16.500;2024-01-30T11:33:30;24.80;;;14.38;;
35418;SDS011;21525;41.240;16.500;2024-01-30T11:35:59;25.58;;;15.07;;
35418;SDS011;21525;41.240;16.500;2024-01-30T11:38:26;24.80;;;15.10;;
35418;SDS011;21525;41.240;16.500;2024-01-30T11:40:53;25.80;;;14.77;;
35418;SDS011;21525;41.240;16.500;2024-01-30T11:43:21;25.33;;;14.65;;
35418;SDS011;21525;41.240;16.500;2024-01-30T11:45:47;26.48;;;14.77;;
35418;SDS011;21525;41.240;16.500;2024-01-30T11:48:13;28.45;;;15.68;;
35418;SDS011;21525;41.240;16.500;2024-01-30T11:50:39;29.17;;;15.25;;
35418;SDS011;21525;41.240;16.500;2024-01-30T11:53:06;27.02;;;14.68;;
35418;SDS011;21525;41.240;16.500;2024-01-30T11:55:32;26.58;;;15.32;;
35418;SDS011;21525;41.240;16.500;2024-01-30T11:57:58;22.40;;;13.43;;
35418;SDS011;21525;41.240;16.500;2024-01-30T12:00:24;20.15;;;11.60;;
35418;SDS011;21525;41.240;16.500;2024-01-30T12:02:51;23.05;;;13.35;;
35418;SDS011;21525;41.240;16.500;2024-01-30T12:05:27;25.52;;;14.02;;
35418;SDS011;21525;41.240;16.500;2024-01-30T12:07:53;22.77;;;13.13;;
35418;SDS011;21525;41.240;16.500;2024-01-30T12:10:19;22.77;;;12.93;;
35418;SDS011;21525;41.240;16.500;2024-01-30T12:12:46;25.90;;;13.75;;
35418;SDS011;21525;41.240;16.500;2024-01-30T12:15:14;23.35;;;12.35;;
35418;SDS011;21525;41.240;16.500;2024-01-30T12:17:40;22.20;;;13.75;;
35418;SDS011;21525;41.240;16.500;2024-01-30T12:20:07;24.80;;;14.02;;
35418;SDS011;21525;41.240;16.500;2024-01-30T12:22:37;24.33;;;13.75;;
35418;SDS011;21525;41.240;16.500;2024-01-30T12:25:08;24.67;;;13.70;;
35418;SDS011;21525;41.240;16.500;2024-01-30T12:27:35;25.00;;;12.38;;
35418;SDS011;21525;41.240;16.500;2024-01-30T12:30:05;21.25;;;12.00;;
35418;SDS011;21525;41.240;16.500;2024-01-30T12:32:35;17.63;;;11.30;;
35418;SDS011;21525;41.240;16.500;2024-01-30T12:35:01;16.90;;;9.35;;
35418;SDS011;21525;41.240;16.500;2024-01-30T12:37:27;16.67;;;9.93;;
35418;SDS011;21525;41.240;16.500;2024-01-30T12:39:54;21.95;;;8.90;;
35418;SDS011;21525;41.240;16.500;2024-01-30T12:42:22;16.70;;;8.93;;
35418;SDS011;21525;41.240;16.500;2024-01-30T12:44:48;12.32;;;6.55;;
35418;SDS011;21525;41.240;16.500;2024-01-30T12:47:15;12.13;;;5.57;;
35418;SDS011;21525;41.240;16.500;2024-01-30T12:49:42;14.02;;;5.60;;
35418;SDS011;21525;41.240;16.500;2024-01-30T12:52:10;12.93;;;4.77;;
35418;SDS011;21525;41.240;16.500;2024-01-30T12:54:37;13.43;;;5.03;;
35418;SDS011;21525;41.240;16.500;2024-01-30T12:57:03;12.30;;;6.07;;
35418;SDS011;21525;41.240;16.500;2024-01-30T12:59:29;8.93;;;4.85;;
35418;SDS011;21525;41.240;16.500;2024-01-30T13:01:55;11.30;;;5.25;;
35418;SDS011;21525;41.240;16.500;2024-01-30T13:04:22;10.60;;;5.40;;
35418;SDS011;21525;41.240;16.500;2024-01-30T13:06:48;14.10;;;6.07;;
35418;SDS011;21525;41.240;16.500;2024-01-30T13:09:14;11.00;;;5.60;;
35418;SDS011;21525;41.240;16.500;2024-01-30T13:11:41;10.55;;;5.63;;
35418;SDS011;21525;41.240;16.500;2024-01-30T13:14:06;10.23;;;5.70;;
35418;SDS011;21525;41.240;16.500;2024-01-30T13:16:32;10.15;;;5.35;;
35418;SDS011;21525;41.240;16.500;2024-01-30T13:18:59;15.23;;;6.07;;
35418;SDS011;21525;41.240;16.500;2024-01-30T13:21:26;10.55;;;4.70;;
35418;SDS011;21525;41.240;16.500;2024-01-30T13:23:52;16.55;;;5.57;;
35418;SDS011;21525;41.240;16.500;2024-01-30T13:26:19;10.52;;;5.65;;
35418;SDS011;21525;41.240;16.500;2024-01-30T13:28:45;12.65;;;5.50;;
35418;SDS011;21525;41.240;16.500;2024-01-30T13:31:12;11.63;;;5.53;;
35418;SDS011;21525;41.240;16.500;2024-01-30T13:33:38;9.65;;;4.97;;
35418;SDS011;21525;41.240;16.500;2024-01-30T13:36:04;11.60;;;5.45;;
35418;SDS011;21525;41.240;16.500;2024-01-30T13:38:29;9.60;;;4.35;;
35418;SDS011;21525;41.240;16.500;2024-01-30T13:40:55;11.73;;;4.72;;
35418;SDS011;21525;41.240;16.500;2024-01-30T13:43:21;10.38;;;4.68;;
35418;SDS011;21525;41.240;16.500;2024-01-30T13:45:47;10.30;;;5.10;;
35418;SDS011;21525;41.240;16.500;2024-01-30T13:48:12;9.15;;;4.90;;
35418;SDS011;21525;41.240;16.500;2024-01-30T13:50:38;10.95;;;5.63;;
35418;SDS011;21525;41.240;16.500;2024-01-30T13:53:04;10.40;;;4.97;;
35418;SDS011;21525;41.240;16.500;2024-01-30T13:55:30;12.43;;;4.72;;
35418;SDS011;21525;41.240;16.500;2024-01-30T13:57:55;11.77;;;5.25;;
35418;SDS011;21525;41.240;16.500;2024-01-30T14:00:21;10.13;;;6.10;;
35418;SDS011;21525;41.240;16.500;2024-01-30T14:02:48;9.75;;;4.88;;
35418;SDS011;21525;41.240;16.500;2024-01-30T14:05:14;11.05;;;5.07;;
35418;SDS011;21525;41.240;16.500;2024-01-30T14:07:41;11.02;;;5.03;;
35418;SDS011;21525;41.240;16.500;2024-01-30T14:10:09;7.68;;;4.53;;